Погода Пирапорана 2 недели

Минас-Жерайс, Бразилия

20 июля-01 августа
  • 20июля
    Сегодня
    +15°
    +31°
    Ясно и безоблачно
    ВремяПогодаТемператураВлажностьДавлениеВетер, м/сВероятность осадков
    00:00Ясно и безоблачно+20°C51 %721 мм0.8 м/с5 %
    03:00Ясно и безоблачно+19°C56 %721 мм0.2 м/с5 %
    06:00Ясно и безоблачно+16°C68 %721 мм1.3 м/с5 %
    09:00Ясно и безоблачно+21°C54 %723 мм2.3 м/с5 %
    12:00Ясно и безоблачно+27°C38 %722 мм2.9 м/с5 %
    15:00Ясно и безоблачно+30°C32 %720 мм2.4 м/с5 %
    18:00Ясно и безоблачно+26°C38 %720 мм2.6 м/с5 %
    21:00Ясно и безоблачно+22°C48 %720 мм2.5 м/с5 %
  • 21июля
    Воскресенье
    +15°
    +31°
    Ясно и безоблачно
    ВремяПогодаТемператураВлажностьДавлениеВетер, м/сВероятность осадков
    00:00Ясно и безоблачно+20°C53 %721 мм1.5 м/с5 %
    03:00Ясно и безоблачно+17°C63 %719 мм1.9 м/с5 %
    06:00Ясно и безоблачно+15°C71 %720 мм2.0 м/с5 %
    09:00Ясно и безоблачно+21°C48 %723 мм1.8 м/с5 %
    12:00Ясно и безоблачно+27°C32 %722 мм4.1 м/с5 %
    15:00Ясно и безоблачно+29°C30 %720 мм3.4 м/с5 %
    18:00Ясно и безоблачно+26°C40 %720 мм3.0 м/с5 %
    21:00Ясно и безоблачно+22°C52 %721 мм1.9 м/с5 %
  • 22июля
    Понедельник
    +16°
    +31°
    Ясно и безоблачно
    ВремяПогодаТемператураВлажностьДавлениеВетер, м/сВероятность осадков
    00:00Ясно и безоблачно+19°C62 %721 мм1.7 м/с5 %
    03:00Ясно и безоблачно+18°C69 %720 мм0.9 м/с5 %
    06:00Ясно и безоблачно+16°C79 %721 мм0.8 м/с5 %
    09:00Ясно и безоблачно+21°C62 %723 мм2.2 м/с5 %
    12:00Ясно и безоблачно+28°C37 %722 мм2.2 м/с5 %
    15:00Ясно и безоблачно+31°C31 %720 мм1.6 м/с5 %
    18:00Ясно и безоблачно+27°C39 %721 мм1.5 м/с5 %
    21:00Ясно и безоблачно+23°C44 %721 мм2.9 м/с5 %
  • 23июля
    Вторник
    +15°
    +32°
    Ясно и безоблачно
    ВремяПогодаТемператураВлажностьДавлениеВетер, м/сВероятность осадков
    00:00Ясно и безоблачно+20°C56 %721 мм1.8 м/с5 %
    03:00Ясно и безоблачно+19°C57 %721 мм1.2 м/с5 %
    06:00Ясно и безоблачно+17°C64 %721 мм0.5 м/с5 %
    09:00Ясно и безоблачно+22°C47 %723 мм1.6 м/с5 %
    12:00Ясно и безоблачно+28°C27 %723 мм2.4 м/с5 %
    15:00Ясно и безоблачно+31°C20 %721 мм2.8 м/с5 %
    18:00Ясно и безоблачно+26°C28 %721 мм2.4 м/с5 %
    21:00Ясно и безоблачно+24°C35 %722 мм3.7 м/с5 %
Мы используем cookies
Соглашаюсь